sensor_id;sensor_type;location;lat;lon;timestamp;P1;durP1;ratioP1;P2;durP2;ratioP2
52718;SDS011;38616;42.140;24.760;2022-08-21T00:02:14;10.60;;;4.30;;
52718;SDS011;38616;42.140;24.760;2022-08-21T00:04:44;10.38;;;4.22;;
52718;SDS011;38616;42.140;24.760;2022-08-21T00:07:11;9.68;;;3.83;;
52718;SDS011;38616;42.140;24.760;2022-08-21T00:09:36;12.02;;;4.40;;
52718;SDS011;38616;42.140;24.760;2022-08-21T00:12:02;12.18;;;4.70;;
52718;SDS011;38616;42.140;24.760;2022-08-21T00:14:28;8.48;;;3.72;;
52718;SDS011;38616;42.140;24.760;2022-08-21T00:16:53;9.88;;;3.72;;
52718;SDS011;38616;42.140;24.760;2022-08-21T00:19:19;11.10;;;4.38;;
52718;SDS011;38616;42.140;24.760;2022-08-21T00:21:44;14.30;;;4.65;;
52718;SDS011;38616;42.140;24.760;2022-08-21T00:24:10;10.02;;;4.15;;
52718;SDS011;38616;42.140;24.760;2022-08-21T00:26:37;13.32;;;4.10;;
52718;SDS011;38616;42.140;24.760;2022-08-21T00:29:03;9.32;;;3.55;;
52718;SDS011;38616;42.140;24.760;2022-08-21T00:31:28;9.85;;;4.95;;
52718;SDS011;38616;42.140;24.760;2022-08-21T00:33:54;8.70;;;4.00;;
52718;SDS011;38616;42.140;24.760;2022-08-21T00:36:19;11.55;;;4.55;;
52718;SDS011;38616;42.140;24.760;2022-08-21T00:38:45;13.23;;;4.03;;
52718;SDS011;38616;42.140;24.760;2022-08-21T00:41:11;6.88;;;4.03;;
52718;SDS011;38616;42.140;24.760;2022-08-21T00:43:37;15.43;;;4.35;;
52718;SDS011;38616;42.140;24.760;2022-08-21T00:46:04;13.15;;;4.45;;
52718;SDS011;38616;42.140;24.760;2022-08-21T00:48:31;12.52;;;4.53;;
52718;SDS011;38616;42.140;24.760;2022-08-21T00:51:00;9.15;;;3.55;;
52718;SDS011;38616;42.140;24.760;2022-08-21T00:53:30;11.90;;;4.93;;
52718;SDS011;38616;42.140;24.760;2022-08-21T00:55:57;6.40;;;3.40;;
52718;SDS011;38616;42.140;24.760;2022-08-21T00:58:23;13.70;;;3.57;;
52718;SDS011;38616;42.140;24.760;2022-08-21T01:00:51;12.75;;;4.43;;
52718;SDS011;38616;42.140;24.760;2022-08-21T01:03:20;13.18;;;4.13;;
52718;SDS011;38616;42.140;24.760;2022-08-21T01:05:48;7.80;;;3.58;;
52718;SDS011;38616;42.140;24.760;2022-08-21T01:08:14;11.95;;;4.38;;
52718;SDS011;38616;42.140;24.760;2022-08-21T01:10:42;13.15;;;4.10;;
52718;SDS011;38616;42.140;24.760;2022-08-21T01:13:09;17.63;;;8.60;;
52718;SDS011;38616;42.140;24.760;2022-08-21T01:15:38;21.90;;;8.73;;
52718;SDS011;38616;42.140;24.760;2022-08-21T01:18:08;13.48;;;6.18;;
52718;SDS011;38616;42.140;24.760;2022-08-21T01:20:36;12.55;;;5.50;;
52718;SDS011;38616;42.140;24.760;2022-08-21T01:23:04;13.60;;;4.95;;
52718;SDS011;38616;42.140;24.760;2022-08-21T01:25:31;11.32;;;4.30;;
52718;SDS011;38616;42.140;24.760;2022-08-21T01:27:59;12.35;;;4.50;;
52718;SDS011;38616;42.140;24.760;2022-08-21T01:30:36;12.27;;;4.72;;
52718;SDS011;38616;42.140;24.760;2022-08-21T01:33:03;10.10;;;4.53;;
52718;SDS011;38616;42.140;24.760;2022-08-21T01:35:29;10.30;;;4.65;;
52718;SDS011;38616;42.140;24.760;2022-08-21T01:37:55;11.85;;;4.88;;
52718;SDS011;38616;42.140;24.760;2022-08-21T01:40:20;9.25;;;4.45;;
52718;SDS011;38616;42.140;24.760;2022-08-21T01:42:46;11.55;;;4.90;;
52718;SDS011;38616;42.140;24.760;2022-08-21T01:45:13;12.73;;;5.18;;
52718;SDS011;38616;42.140;24.760;2022-08-21T01:50:06;15.35;;;4.55;;
52718;SDS011;38616;42.140;24.760;2022-08-21T01:52:35;8.30;;;3.85;;
52718;SDS011;38616;42.140;24.760;2022-08-21T01:55:01;13.85;;;4.85;;
52718;SDS011;38616;42.140;24.760;2022-08-21T01:57:26;10.75;;;4.65;;
52718;SDS011;38616;42.140;24.760;2022-08-21T01:59:52;14.85;;;5.60;;
52718;SDS011;38616;42.140;24.760;2022-08-21T02:02:17;11.90;;;4.70;;
52718;SDS011;38616;42.140;24.760;2022-08-21T02:04:43;9.95;;;4.78;;
52718;SDS011;38616;42.140;24.760;2022-08-21T02:07:08;15.63;;;4.75;;
52718;SDS011;38616;42.140;24.760;2022-08-21T02:09:34;10.05;;;5.35;;
52718;SDS011;38616;42.140;24.760;2022-08-21T02:11:59;8.88;;;4.90;;
52718;SDS011;38616;42.140;24.760;2022-08-21T02:14:25;14.98;;;5.10;;
52718;SDS011;38616;42.140;24.760;2022-08-21T02:16:50;12.85;;;5.90;;
52718;SDS011;38616;42.140;24.760;2022-08-21T02:19:16;13.48;;;4.97;;
52718;SDS011;38616;42.140;24.760;2022-08-21T02:21:42;13.45;;;5.28;;
52718;SDS011;38616;42.140;24.760;2022-08-21T02:24:09;8.50;;;4.70;;
52718;SDS011;38616;42.140;24.760;2022-08-21T02:26:36;8.02;;;4.47;;
52718;SDS011;38616;42.140;24.760;2022-08-21T02:29:03;12.75;;;4.72;;
52718;SDS011;38616;42.140;24.760;2022-08-21T02:31:30;12.50;;;4.75;;
52718;SDS011;38616;42.140;24.760;2022-08-21T02:33:56;16.40;;;4.80;;
52718;SDS011;38616;42.140;24.760;2022-08-21T02:36:21;12.23;;;5.60;;
52718;SDS011;38616;42.140;24.760;2022-08-21T02:38:47;9.02;;;5.82;;
52718;SDS011;38616;42.140;24.760;2022-08-21T02:41:16;14.32;;;6.53;;
52718;SDS011;38616;42.140;24.760;2022-08-21T02:43:44;10.20;;;5.82;;
52718;SDS011;38616;42.140;24.760;2022-08-21T02:46:11;7.13;;;5.03;;
52718;SDS011;38616;42.140;24.760;2022-08-21T02:48:38;10.75;;;4.70;;
52718;SDS011;38616;42.140;24.760;2022-08-21T02:51:05;12.55;;;5.97;;
52718;SDS011;38616;42.140;24.760;2022-08-21T02:53:33;11.75;;;5.18;;
52718;SDS011;38616;42.140;24.760;2022-08-21T02:56:01;10.00;;;5.15;;
52718;SDS011;38616;42.140;24.760;2022-08-21T02:58:32;10.88;;;5.25;;
52718;SDS011;38616;42.140;24.760;2022-08-21T03:01:00;13.20;;;5.50;;
52718;SDS011;38616;42.140;24.760;2022-08-21T03:03:27;10.70;;;5.10;;
52718;SDS011;38616;42.140;24.760;2022-08-21T03:05:54;12.40;;;5.13;;
52718;SDS011;38616;42.140;24.760;2022-08-21T03:08:19;14.50;;;6.07;;
52718;SDS011;38616;42.140;24.760;2022-08-21T03:10:46;14.43;;;5.35;;
52718;SDS011;38616;42.140;24.760;2022-08-21T03:13:14;18.85;;;6.32;;
52718;SDS011;38616;42.140;24.760;2022-08-21T03:15:40;14.18;;;5.20;;
52718;SDS011;38616;42.140;24.760;2022-08-21T03:18:06;12.90;;;5.38;;
52718;SDS011;38616;42.140;24.760;2022-08-21T03:20:34;14.47;;;6.47;;
52718;SDS011;38616;42.140;24.760;2022-08-21T03:23:01;14.65;;;6.72;;
52718;SDS011;38616;42.140;24.760;2022-08-21T03:25:28;10.27;;;5.47;;
52718;SDS011;38616;42.140;24.760;2022-08-21T03:27:57;11.25;;;5.45;;
52718;SDS011;38616;42.140;24.760;2022-08-21T03:30:22;12.68;;;6.25;;
52718;SDS011;38616;42.140;24.760;2022-08-21T03:32:48;14.20;;;7.05;;
52718;SDS011;38616;42.140;24.760;2022-08-21T03:35:13;9.98;;;6.40;;
52718;SDS011;38616;42.140;24.760;2022-08-21T03:37:39;14.40;;;6.00;;
52718;SDS011;38616;42.140;24.760;2022-08-21T03:40:05;12.02;;;5.95;;
52718;SDS011;38616;42.140;24.760;2022-08-21T03:42:33;14.70;;;5.38;;
52718;SDS011;38616;42.140;24.760;2022-08-21T03:44:58;12.73;;;6.28;;
52718;SDS011;38616;42.140;24.760;2022-08-21T03:47:24;13.60;;;6.70;;
52718;SDS011;38616;42.140;24.760;2022-08-21T03:49:50;14.85;;;5.63;;
52718;SDS011;38616;42.140;24.760;2022-08-21T03:52:16;13.05;;;5.47;;
52718;SDS011;38616;42.140;24.760;2022-08-21T03:54:42;13.50;;;6.38;;
52718;SDS011;38616;42.140;24.760;2022-08-21T03:57:08;12.10;;;6.00;;
52718;SDS011;38616;42.140;24.760;2022-08-21T03:59:34;14.80;;;6.35;;
52718;SDS011;38616;42.140;24.760;2022-08-21T04:02:01;12.27;;;6.70;;
52718;SDS011;38616;42.140;24.760;2022-08-21T04:04:29;16.38;;;6.28;;
52718;SDS011;38616;42.140;24.760;2022-08-21T04:06:55;12.82;;;6.45;;
52718;SDS011;38616;42.140;24.760;2022-08-21T04:09:21;16.50;;;6.78;;
52718;SDS011;38616;42.140;24.760;2022-08-21T04:11:47;14.05;;;6.25;;
52718;SDS011;38616;42.140;24.760;2022-08-21T04:14:13;14.88;;;5.85;;
52718;SDS011;38616;42.140;24.760;2022-08-21T04:16:40;13.63;;;6.20;;
52718;SDS011;38616;42.140;24.760;2022-08-21T04:19:06;13.63;;;6.07;;
52718;SDS011;38616;42.140;24.760;2022-08-21T04:21:32;19.33;;;7.00;;
52718;SDS011;38616;42.140;24.760;2022-08-21T04:23:58;16.88;;;7.50;;
52718;SDS011;38616;42.140;24.760;2022-08-21T04:26:24;13.02;;;6.97;;
52718;SDS011;38616;42.140;24.760;2022-08-21T04:28:50;14.40;;;7.18;;
52718;SDS011;38616;42.140;24.760;2022-08-21T04:31:16;15.32;;;7.00;;
52718;SDS011;38616;42.140;24.760;2022-08-21T04:33:41;22.45;;;7.00;;
52718;SDS011;38616;42.140;24.760;2022-08-21T04:36:07;16.13;;;7.50;;
52718;SDS011;38616;42.140;24.760;2022-08-21T04:38:33;21.35;;;9.52;;
52718;SDS011;38616;42.140;24.760;2022-08-21T04:40:59;14.15;;;7.55;;
52718;SDS011;38616;42.140;24.760;2022-08-21T04:43:24;15.32;;;7.22;;
52718;SDS011;38616;42.140;24.760;2022-08-21T04:45:50;21.35;;;8.40;;
52718;SDS011;38616;42.140;24.760;2022-08-21T04:48:19;16.97;;;7.83;;
52718;SDS011;38616;42.140;24.760;2022-08-21T04:50:59;15.02;;;6.38;;
52718;SDS011;38616;42.140;24.760;2022-08-21T04:53:38;15.65;;;7.35;;
52718;SDS011;38616;42.140;24.760;2022-08-21T04:56:09;17.13;;;6.90;;
52718;SDS011;38616;42.140;24.760;2022-08-21T04:58:38;17.88;;;7.22;;
52718;SDS011;38616;42.140;24.760;2022-08-21T05:01:07;15.70;;;6.75;;
52718;SDS011;38616;42.140;24.760;2022-08-21T05:03:36;20.48;;;7.50;;
52718;SDS011;38616;42.140;24.760;2022-08-21T05:06:03;24.25;;;12.98;;
52718;SDS011;38616;42.140;24.760;2022-08-21T05:08:31;19.98;;;9.55;;
52718;SDS011;38616;42.140;24.760;2022-08-21T05:10:58;14.60;;;8.27;;
52718;SDS011;38616;42.140;24.760;2022-08-21T05:13:24;19.58;;;9.60;;
52718;SDS011;38616;42.140;24.760;2022-08-21T05:15:50;14.77;;;8.18;;
52718;SDS011;38616;42.140;24.760;2022-08-21T05:18:15;19.48;;;7.82;;
52718;SDS011;38616;42.140;24.760;2022-08-21T05:20:41;13.07;;;5.93;;
52718;SDS011;38616;42.140;24.760;2022-08-21T05:23:10;14.10;;;6.57;;
52718;SDS011;38616;42.140;24.760;2022-08-21T05:25:38;11.05;;;6.07;;
52718;SDS011;38616;42.140;24.760;2022-08-21T05:28:04;15.55;;;6.95;;
52718;SDS011;38616;42.140;24.760;2022-08-21T05:30:30;13.70;;;5.90;;
52718;SDS011;38616;42.140;24.760;2022-08-21T05:32:57;12.32;;;6.47;;
52718;SDS011;38616;42.140;24.760;2022-08-21T05:37:52;12.88;;;6.40;;
52718;SDS011;38616;42.140;24.760;2022-08-21T05:40:17;16.60;;;6.63;;
52718;SDS011;38616;42.140;24.760;2022-08-21T05:42:43;12.93;;;6.80;;
52718;SDS011;38616;42.140;24.760;2022-08-21T05:45:09;15.60;;;8.45;;
52718;SDS011;38616;42.140;24.760;2022-08-21T05:47:35;12.07;;;6.38;;
52718;SDS011;38616;42.140;24.760;2022-08-21T05:50:00;14.52;;;5.50;;
52718;SDS011;38616;42.140;24.760;2022-08-21T05:52:26;14.50;;;5.88;;
52718;SDS011;38616;42.140;24.760;2022-08-21T05:54:51;16.67;;;6.45;;
52718;SDS011;38616;42.140;24.760;2022-08-21T05:57:19;15.60;;;7.25;;
52718;SDS011;38616;42.140;24.760;2022-08-21T05:59:45;21.23;;;7.25;;
52718;SDS011;38616;42.140;24.760;2022-08-21T06:02:11;14.48;;;6.95;;
52718;SDS011;38616;42.140;24.760;2022-08-21T06:04:37;15.07;;;6.38;;
52718;SDS011;38616;42.140;24.760;2022-08-21T06:07:03;13.23;;;6.25;;
52718;SDS011;38616;42.140;24.760;2022-08-21T06:09:29;19.77;;;6.95;;
52718;SDS011;38616;42.140;24.760;2022-08-21T06:11:55;15.05;;;7.45;;
52718;SDS011;38616;42.140;24.760;2022-08-21T06:14:20;16.38;;;7.97;;
52718;SDS011;38616;42.140;24.760;2022-08-21T06:16:46;15.48;;;7.43;;
52718;SDS011;38616;42.140;24.760;2022-08-21T06:19:11;19.13;;;9.35;;
52718;SDS011;38616;42.140;24.760;2022-08-21T06:21:37;13.43;;;7.55;;
52718;SDS011;38616;42.140;24.760;2022-08-21T06:24:02;18.95;;;7.18;;
52718;SDS011;38616;42.140;24.760;2022-08-21T06:26:29;14.40;;;7.17;;
52718;SDS011;38616;42.140;24.760;2022-08-21T06:28:56;16.35;;;7.13;;
52718;SDS011;38616;42.140;24.760;2022-08-21T06:31:22;10.40;;;6.15;;
52718;SDS011;38616;42.140;24.760;2022-08-21T06:33:50;15.68;;;6.25;;
52718;SDS011;38616;42.140;24.760;2022-08-21T06:36:15;20.38;;;6.80;;
52718;SDS011;38616;42.140;24.760;2022-08-21T06:38:41;15.35;;;8.48;;
52718;SDS011;38616;42.140;24.760;2022-08-21T06:41:07;14.30;;;7.40;;
52718;SDS011;38616;42.140;24.760;2022-08-21T06:43:33;15.52;;;7.20;;
52718;SDS011;38616;42.140;24.760;2022-08-21T06:45:59;15.05;;;7.72;;
52718;SDS011;38616;42.140;24.760;2022-08-21T06:48:24;14.10;;;6.32;;
52718;SDS011;38616;42.140;24.760;2022-08-21T06:50:50;19.83;;;6.63;;
52718;SDS011;38616;42.140;24.760;2022-08-21T06:53:16;15.38;;;9.02;;
52718;SDS011;38616;42.140;24.760;2022-08-21T06:55:45;25.60;;;13.82;;
52718;SDS011;38616;42.140;24.760;2022-08-21T06:58:12;17.35;;;9.43;;
52718;SDS011;38616;42.140;24.760;2022-08-21T07:00:38;12.18;;;6.63;;
52718;SDS011;38616;42.140;24.760;2022-08-21T07:03:06;15.20;;;7.63;;
52718;SDS011;38616;42.140;24.760;2022-08-21T07:05:31;16.95;;;7.93;;
52718;SDS011;38616;42.140;24.760;2022-08-21T07:07:57;11.73;;;5.88;;
52718;SDS011;38616;42.140;24.760;2022-08-21T07:10:26;14.20;;;6.60;;
52718;SDS011;38616;42.140;24.760;2022-08-21T07:12:53;14.95;;;6.50;;
52718;SDS011;38616;42.140;24.760;2022-08-21T07:15:19;16.13;;;7.47;;
52718;SDS011;38616;42.140;24.760;2022-08-21T07:17:45;12.15;;;6.95;;
52718;SDS011;38616;42.140;24.760;2022-08-21T07:20:10;15.68;;;5.88;;
52718;SDS011;38616;42.140;24.760;2022-08-21T07:22:36;15.65;;;6.78;;
52718;SDS011;38616;42.140;24.760;2022-08-21T07:25:04;13.77;;;6.90;;
52718;SDS011;38616;42.140;24.760;2022-08-21T07:27:31;16.48;;;6.93;;
52718;SDS011;38616;42.140;24.760;2022-08-21T07:29:56;15.10;;;6.28;;
52718;SDS011;38616;42.140;24.760;2022-08-21T07:32:22;14.27;;;7.30;;
52718;SDS011;38616;42.140;24.760;2022-08-21T07:34:48;16.35;;;7.13;;
52718;SDS011;38616;42.140;24.760;2022-08-21T07:37:14;14.15;;;6.97;;
52718;SDS011;38616;42.140;24.760;2022-08-21T07:39:40;14.80;;;6.15;;
52718;SDS011;38616;42.140;24.760;2022-08-21T07:42:05;16.85;;;7.05;;
52718;SDS011;38616;42.140;24.760;2022-08-21T07:44:30;17.10;;;7.93;;
52718;SDS011;38616;42.140;24.760;2022-08-21T07:46:56;18.80;;;10.38;;
52718;SDS011;38616;42.140;24.760;2022-08-21T07:49:22;19.27;;;9.35;;
52718;SDS011;38616;42.140;24.760;2022-08-21T07:51:48;20.27;;;9.00;;
52718;SDS011;38616;42.140;24.760;2022-08-21T07:54:13;15.70;;;7.97;;
52718;SDS011;38616;42.140;24.760;2022-08-21T07:56:39;18.20;;;7.95;;
52718;SDS011;38616;42.140;24.760;2022-08-21T07:59:04;13.70;;;7.57;;
52718;SDS011;38616;42.140;24.760;2022-08-21T08:01:29;15.90;;;7.30;;
52718;SDS011;38616;42.140;24.760;2022-08-21T08:03:55;12.70;;;6.43;;
52718;SDS011;38616;42.140;24.760;2022-08-21T08:06:21;16.35;;;7.53;;
52718;SDS011;38616;42.140;24.760;2022-08-21T08:08:48;12.20;;;7.22;;
52718;SDS011;38616;42.140;24.760;2022-08-21T08:11:16;19.92;;;8.82;;
52718;SDS011;38616;42.140;24.760;2022-08-21T08:13:49;13.95;;;7.20;;
52718;SDS011;38616;42.140;24.760;2022-08-21T08:16:16;17.23;;;5.90;;
52718;SDS011;38616;42.140;24.760;2022-08-21T08:18:42;22.37;;;8.03;;
52718;SDS011;38616;42.140;24.760;2022-08-21T08:21:09;15.05;;;7.30;;
52718;SDS011;38616;42.140;24.760;2022-08-21T08:23:36;15.07;;;7.55;;
52718;SDS011;38616;42.140;24.760;2022-08-21T08:26:02;14.30;;;6.90;;
52718;SDS011;38616;42.140;24.760;2022-08-21T08:28:29;14.93;;;6.45;;
52718;SDS011;38616;42.140;24.760;2022-08-21T08:30:56;11.10;;;6.43;;
52718;SDS011;38616;42.140;24.760;2022-08-21T08:33:22;13.57;;;7.72;;
52718;SDS011;38616;42.140;24.760;2022-08-21T08:35:48;16.17;;;7.85;;
52718;SDS011;38616;42.140;24.760;2022-08-21T08:38:16;15.50;;;8.00;;
52718;SDS011;38616;42.140;24.760;2022-08-21T08:43:38;14.45;;;7.80;;
52718;SDS011;38616;42.140;24.760;2022-08-21T08:46:09;16.08;;;7.57;;
52718;SDS011;38616;42.140;24.760;2022-08-21T08:52:05;15.18;;;8.15;;
52718;SDS011;38616;42.140;24.760;2022-08-21T08:54:30;15.43;;;7.78;;
52718;SDS011;38616;42.140;24.760;2022-08-21T08:57:00;21.38;;;8.20;;
52718;SDS011;38616;42.140;24.760;2022-08-21T09:02:03;17.33;;;7.10;;
52718;SDS011;38616;42.140;24.760;2022-08-21T09:04:30;17.75;;;7.50;;
52718;SDS011;38616;42.140;24.760;2022-08-21T09:09:28;14.43;;;6.05;;
52718;SDS011;38616;42.140;24.760;2022-08-21T09:14:47;13.57;;;5.47;;
52718;SDS011;38616;42.140;24.760;2022-08-21T09:20:18;12.10;;;5.32;;
52718;SDS011;38616;42.140;24.760;2022-08-21T09:25:59;12.75;;;6.25;;
52718;SDS011;38616;42.140;24.760;2022-08-21T09:28:39;12.88;;;6.18;;
52718;SDS011;38616;42.140;24.760;2022-08-21T09:31:41;16.10;;;6.43;;
52718;SDS011;38616;42.140;24.760;2022-08-21T09:34:04;16.17;;;7.63;;
52718;SDS011;38616;42.140;24.760;2022-08-21T09:36:45;17.02;;;6.53;;
52718;SDS011;38616;42.140;24.760;2022-08-21T09:39:21;15.45;;;6.13;;
52718;SDS011;38616;42.140;24.760;2022-08-21T09:41:54;11.80;;;5.80;;
52718;SDS011;38616;42.140;24.760;2022-08-21T09:44:33;12.30;;;5.50;;
52718;SDS011;38616;42.140;24.760;2022-08-21T09:47:04;14.23;;;7.03;;
52718;SDS011;38616;42.140;24.760;2022-08-21T09:49:30;13.68;;;6.65;;
52718;SDS011;38616;42.140;24.760;2022-08-21T09:51:57;15.35;;;6.65;;
52718;SDS011;38616;42.140;24.760;2022-08-21T09:54:30;13.48;;;6.72;;
52718;SDS011;38616;42.140;24.760;2022-08-21T09:56:59;10.77;;;6.05;;
52718;SDS011;38616;42.140;24.760;2022-08-21T09:59:55;16.15;;;7.30;;
52718;SDS011;38616;42.140;24.760;2022-08-21T10:02:31;17.20;;;8.55;;
52718;SDS011;38616;42.140;24.760;2022-08-21T10:05:14;18.10;;;7.85;;
52718;SDS011;38616;42.140;24.760;2022-08-21T10:07:42;15.63;;;7.40;;
52718;SDS011;38616;42.140;24.760;2022-08-21T10:19:02;18.00;;;7.32;;
52718;SDS011;38616;42.140;24.760;2022-08-21T10:24:31;21.05;;;8.32;;
52718;SDS011;38616;42.140;24.760;2022-08-21T10:30:04;14.07;;;7.53;;
52718;SDS011;38616;42.140;24.760;2022-08-21T10:32:37;16.80;;;8.25;;
52718;SDS011;38616;42.140;24.760;2022-08-21T10:35:22;16.63;;;8.50;;
52718;SDS011;38616;42.140;24.760;2022-08-21T10:39:16;14.48;;;7.72;;
52718;SDS011;38616;42.140;24.760;2022-08-21T10:53:05;18.52;;;8.20;;
52718;SDS011;38616;42.140;24.760;2022-08-21T10:55:54;19.83;;;7.93;;
52718;SDS011;38616;42.140;24.760;2022-08-21T10:58:34;19.45;;;7.93;;
52718;SDS011;38616;42.140;24.760;2022-08-21T11:01:13;18.27;;;8.77;;
52718;SDS011;38616;42.140;24.760;2022-08-21T11:03:44;22.13;;;9.52;;
52718;SDS011;38616;42.140;24.760;2022-08-21T11:06:20;17.90;;;9.10;;
52718;SDS011;38616;42.140;24.760;2022-08-21T11:08:50;22.25;;;9.85;;
52718;SDS011;38616;42.140;24.760;2022-08-21T11:11:31;22.30;;;9.77;;
52718;SDS011;38616;42.140;24.760;2022-08-21T11:14:08;18.63;;;9.18;;
52718;SDS011;38616;42.140;24.760;2022-08-21T11:16:41;18.75;;;9.35;;
52718;SDS011;38616;42.140;24.760;2022-08-21T11:19:13;18.52;;;9.02;;
52718;SDS011;38616;42.140;24.760;2022-08-21T11:27:01;18.25;;;8.65;;
52718;SDS011;38616;42.140;24.760;2022-08-21T11:29:36;23.85;;;10.93;;
52718;SDS011;38616;42.140;24.760;2022-08-21T11:43:36;19.15;;;8.73;;
52718;SDS011;38616;42.140;24.760;2022-08-21T11:54:41;18.92;;;8.25;;
52718;SDS011;38616;42.140;24.760;2022-08-21T11:57:19;19.40;;;9.48;;
52718;SDS011;38616;42.140;24.760;2022-08-21T12:00:01;20.52;;;9.02;;
52718;SDS011;38616;42.140;24.760;2022-08-21T12:02:35;13.48;;;7.95;;
52718;SDS011;38616;42.140;24.760;2022-08-21T12:05:08;17.55;;;8.35;;
52718;SDS011;38616;42.140;24.760;2022-08-21T12:07:41;17.77;;;8.15;;
52718;SDS011;38616;42.140;24.760;2022-08-21T12:10:16;32.08;;;8.43;;
52718;SDS011;38616;42.140;24.760;2022-08-21T12:12:46;21.80;;;8.02;;
52718;SDS011;38616;42.140;24.760;2022-08-21T12:20:45;19.05;;;8.10;;
52718;SDS011;38616;42.140;24.760;2022-08-21T12:23:26;19.80;;;8.10;;
52718;SDS011;38616;42.140;24.760;2022-08-21T12:26:13;18.20;;;11.15;;
52718;SDS011;38616;42.140;24.760;2022-08-21T12:29:03;21.52;;;8.23;;
52718;SDS011;38616;42.140;24.760;2022-08-21T12:31:47;18.85;;;8.80;;
52718;SDS011;38616;42.140;24.760;2022-08-21T12:34:15;17.85;;;8.05;;
52718;SDS011;38616;42.140;24.760;2022-08-21T12:36:43;19.20;;;8.32;;
52718;SDS011;38616;42.140;24.760;2022-08-21T12:39:15;26.63;;;8.35;;
52718;SDS011;38616;42.140;24.760;2022-08-21T12:41:48;16.52;;;7.32;;
52718;SDS011;38616;42.140;24.760;2022-08-21T12:44:21;15.10;;;7.50;;
52718;SDS011;38616;42.140;24.760;2022-08-21T12:46:57;19.48;;;9.05;;
52718;SDS011;38616;42.140;24.760;2022-08-21T12:49:43;18.33;;;8.00;;
52718;SDS011;38616;42.140;24.760;2022-08-21T12:52:25;21.35;;;8.25;;
52718;SDS011;38616;42.140;24.760;2022-08-21T12:54:57;17.95;;;8.05;;
52718;SDS011;38616;42.140;24.760;2022-08-21T12:57:28;16.75;;;7.60;;
52718;SDS011;38616;42.140;24.760;2022-08-21T13:00:01;20.88;;;7.93;;
52718;SDS011;38616;42.140;24.760;2022-08-21T13:02:35;16.38;;;8.13;;
52718;SDS011;38616;42.140;24.760;2022-08-21T13:05:06;18.00;;;9.23;;
52718;SDS011;38616;42.140;24.760;2022-08-21T13:07:37;20.35;;;9.43;;
52718;SDS011;38616;42.140;24.760;2022-08-21T13:10:23;14.60;;;7.68;;
52718;SDS011;38616;42.140;24.760;2022-08-21T13:13:02;17.00;;;8.65;;
52718;SDS011;38616;42.140;24.760;2022-08-21T13:15:32;16.58;;;8.32;;
52718;SDS011;38616;42.140;24.760;2022-08-21T13:18:00;16.60;;;8.00;;
52718;SDS011;38616;42.140;24.760;2022-08-21T13:20:32;12.20;;;6.88;;
52718;SDS011;38616;42.140;24.760;2022-08-21T13:23:01;13.25;;;7.15;;
52718;SDS011;38616;42.140;24.760;2022-08-21T13:25:29;16.27;;;8.05;;
52718;SDS011;38616;42.140;24.760;2022-08-21T13:30:34;11.07;;;6.90;;
52718;SDS011;38616;42.140;24.760;2022-08-21T13:33:05;15.05;;;5.97;;
52718;SDS011;38616;42.140;24.760;2022-08-21T13:35:34;13.83;;;5.60;;
52718;SDS011;38616;42.140;24.760;2022-08-21T13:38:11;10.52;;;6.00;;
52718;SDS011;38616;42.140;24.760;2022-08-21T13:40:45;16.08;;;6.47;;
52718;SDS011;38616;42.140;24.760;2022-08-21T13:43:15;13.38;;;5.38;;
52718;SDS011;38616;42.140;24.760;2022-08-21T13:45:46;10.60;;;5.88;;
52718;SDS011;38616;42.140;24.760;2022-08-21T13:48:14;15.02;;;6.45;;
52718;SDS011;38616;42.140;24.760;2022-08-21T13:50:39;11.13;;;6.10;;
52718;SDS011;38616;42.140;24.760;2022-08-21T13:53:18;17.88;;;6.57;;
52718;SDS011;38616;42.140;24.760;2022-08-21T13:55:59;16.35;;;6.90;;
52718;SDS011;38616;42.140;24.760;2022-08-21T13:58:28;14.05;;;5.80;;
52718;SDS011;38616;42.140;24.760;2022-08-21T14:00:57;12.32;;;5.78;;
52718;SDS011;38616;42.140;24.760;2022-08-21T14:03:42;9.95;;;5.65;;
52718;SDS011;38616;42.140;24.760;2022-08-21T14:06:20;13.48;;;6.28;;
52718;SDS011;38616;42.140;24.760;2022-08-21T14:11:18;12.38;;;5.85;;
52718;SDS011;38616;42.140;24.760;2022-08-21T14:13:46;11.45;;;5.43;;
52718;SDS011;38616;42.140;24.760;2022-08-21T14:16:51;14.23;;;5.88;;
52718;SDS011;38616;42.140;24.760;2022-08-21T14:21:56;14.23;;;6.60;;
52718;SDS011;38616;42.140;24.760;2022-08-21T14:26:55;13.93;;;6.80;;
52718;SDS011;38616;42.140;24.760;2022-08-21T14:29:26;15.00;;;5.90;;
52718;SDS011;38616;42.140;24.760;2022-08-21T14:31:58;13.32;;;5.65;;
52718;SDS011;38616;42.140;24.760;2022-08-21T14:34:25;14.30;;;5.57;;
52718;SDS011;38616;42.140;24.760;2022-08-21T14:36:52;12.32;;;6.90;;
52718;SDS011;38616;42.140;24.760;2022-08-21T14:39:19;11.07;;;5.07;;
52718;SDS011;38616;42.140;24.760;2022-08-21T14:41:45;13.27;;;5.32;;
52718;SDS011;38616;42.140;24.760;2022-08-21T14:44:13;11.68;;;5.43;;
52718;SDS011;38616;42.140;24.760;2022-08-21T14:46:39;13.63;;;5.82;;
52718;SDS011;38616;42.140;24.760;2022-08-21T14:49:05;7.20;;;5.07;;
52718;SDS011;38616;42.140;24.760;2022-08-21T14:51:30;8.05;;;4.78;;
52718;SDS011;38616;42.140;24.760;2022-08-21T14:53:56;11.07;;;5.43;;
52718;SDS011;38616;42.140;24.760;2022-08-21T14:56:21;11.30;;;5.55;;
52718;SDS011;38616;42.140;24.760;2022-08-21T14:58:48;16.52;;;5.45;;
52718;SDS011;38616;42.140;24.760;2022-08-21T15:01:17;9.20;;;5.30;;
52718;SDS011;38616;42.140;24.760;2022-08-21T15:03:43;14.32;;;5.43;;
52718;SDS011;38616;42.140;24.760;2022-08-21T15:06:09;8.32;;;5.43;;
52718;SDS011;38616;42.140;24.760;2022-08-21T15:08:35;8.98;;;5.28;;
52718;SDS011;38616;42.140;24.760;2022-08-21T15:11:02;10.68;;;6.55;;
52718;SDS011;38616;42.140;24.760;2022-08-21T15:13:28;12.10;;;5.78;;
52718;SDS011;38616;42.140;24.760;2022-08-21T15:15:55;14.20;;;6.35;;
52718;SDS011;38616;42.140;24.760;2022-08-21T15:18:22;17.63;;;6.47;;
52718;SDS011;38616;42.140;24.760;2022-08-21T15:20:49;14.05;;;6.68;;
52718;SDS011;38616;42.140;24.760;2022-08-21T15:23:15;14.43;;;6.15;;
52718;SDS011;38616;42.140;24.760;2022-08-21T15:25:41;12.85;;;6.22;;
52718;SDS011;38616;42.140;24.760;2022-08-21T15:28:08;13.18;;;5.82;;
52718;SDS011;38616;42.140;24.760;2022-08-21T15:30:34;11.07;;;5.72;;
52718;SDS011;38616;42.140;24.760;2022-08-21T15:33:01;16.63;;;5.77;;
52718;SDS011;38616;42.140;24.760;2022-08-21T15:35:26;9.65;;;6.05;;
52718;SDS011;38616;42.140;24.760;2022-08-21T15:37:52;10.80;;;4.75;;
52718;SDS011;38616;42.140;24.760;2022-08-21T15:40:17;14.63;;;4.85;;
52718;SDS011;38616;42.140;24.760;2022-08-21T15:42:43;14.25;;;5.82;;
52718;SDS011;38616;42.140;24.760;2022-08-21T15:45:10;8.30;;;4.50;;
52718;SDS011;38616;42.140;24.760;2022-08-21T15:50:06;7.90;;;5.03;;
52718;SDS011;38616;42.140;24.760;2022-08-21T15:52:33;11.30;;;5.32;;
52718;SDS011;38616;42.140;24.760;2022-08-21T15:54:59;11.23;;;5.50;;
52718;SDS011;38616;42.140;24.760;2022-08-21T15:57:24;9.95;;;5.13;;
52718;SDS011;38616;42.140;24.760;2022-08-21T15:59:52;11.07;;;5.30;;
52718;SDS011;38616;42.140;24.760;2022-08-21T16:02:37;9.70;;;4.97;;
52718;SDS011;38616;42.140;24.760;2022-08-21T16:05:05;10.27;;;5.07;;
52718;SDS011;38616;42.140;24.760;2022-08-21T16:07:32;9.45;;;4.85;;
52718;SDS011;38616;42.140;24.760;2022-08-21T16:09:58;13.05;;;5.32;;